CheckWX is a tool to help pilots better visualize weather data.  It is not intended as a substitute for an official pre-flight weather briefing.

21:08:20 UTC

KRDU METAR
Raleigh Durham International Airport
Raleigh/Durham, North Carolina, USA
Current

17 mins ago

KRDU 112051Z 25007KT 10SM SCT060 SCT250 33/19 A2979 RMK AO2 SLP083 T03280189 56013
Observed
Jul-11 @ 20:51 UTC
Wind
  • 250° at 7 KTS
Visibility
10 SM
Flight Rules
VFR
Cloud Levels
  • Scattered at 6,000' AGL
  • Scattered at 25,000' AGL
Temperature
33°C / 91°F
Dewpoint
19°C / 66°F
Humidity
44%
Altimeter
29.79" Hg
Pressure
1008.82 hPa
Previous

1 hour ago

KRDU 111951Z VRB03KT 10SM SCT060 SCT250 33/19 A2980 RMK AO2 SLP087 T03280194
Observed
Jul-11 @ 19:51 UTC
Wind
  • Variable at 3 KTS
Visibility
10 SM
Flight Rules
VFR
Cloud Levels
  • Scattered at 6,000' AGL
  • Scattered at 25,000' AGL
Temperature
33°C / 91°F
Dewpoint
19°C / 66°F
Humidity
44%
Altimeter
29.8" Hg
Pressure
1009.12 hPa
Previous

2 hours ago

KRDU 111851Z VRB05KT 10SM SCT055 SCT250 32/19 A2982 RMK AO2 SLP092 T03170194
Observed
Jul-11 @ 18:51 UTC
Wind
  • Variable at 5 KTS
Visibility
10 SM
Flight Rules
VFR
Cloud Levels
  • Scattered at 5,500' AGL
  • Scattered at 25,000' AGL
Temperature
32°C / 90°F
Dewpoint
19°C / 66°F
Humidity
46%
Altimeter
29.82" Hg
Pressure
1009.82 hPa